Tollgate, Oregon
Current Conditions -  °F | °C
As of 9:56 AM on Monday 24 Nov 2014 (Local Time) from KRDM Reporting Station
Clear Clear  
Wind Chill: 33°   Ceiling: Unl
Heat Index: 40°   Visibility: 10mi
Dew Point: 29°   Wind: 12mph
Humidity: 65%   Direction: 160°SSE
Pressure: 30.39"   Gusts: NA
Location:  44.3095°N, 121.588°W
Report Text: KRDM 241756Z 16010KT 10SM CLR 04/M02 A3039 RMK AO2 SLP306 T00441017 10044 21028 51007
Loading
Personal Weather Stations






























Interactive Weather Map New forecast layout! Learn more

10-Day Weather Forecast

Advertisements
Track Severe Weather on mobile